Relevés horaires Bierset (Belgique)


Relevés horaires à Bierset - Mardi 13 Févr. 2018
Heure UTC1 Température [°C] Vent [km/h] Hum. [%] Pres.4 [hPa] Visi. [Km] Nébu. [octa] Préc.5 [mm] Cond.
2m. Res. Ros. Dir.2 Vit. Moy. Raf.3
23:00 0.4 -2.6 -7.8 SSE 9.3 9.3 14.8 54 1011.5(0.6/3h) 30 1/8 -- --
22:00 0.1 -2.4 -7.3 SSE 7.4 9.3 20.4 57 1011.5(1.2/3h) 30 1/8 -- --
21:00 0.5 -2.5 -7.1 SSE 9.3 9.3 20.4 57 1011.1(1.1/3h) 30 1/8 -- --
20:00 0.8 -1.6 -6.5 SE 7.4 7.4 16.7 58 1010.8(1.0/3h) 30 1/8 -- --
19:00 1.1 -1.3 -5.7 SE 7.4 7.4 16.7 60 1010.2(0.6/3h) 30 1/8 -- --
18:00 1.7 -0.6 -5.3 SE 7.4 16.7 24.1 60 1009.9(0.5/3h) 30 1/8 0/12h
--
17:00 2.4 0.3 -6.0 SSE 7.4 11.1 20.4 54 1009.6(-0.2/3h) 30 1/8 -- --
16:00 3.5 0.6 -6.5 SSE 11.1 14.8 22.2 48 1009.4(-1.3/3h) 30 2/8 -- --
15:00 4.0 0.5 -6.5 S 14.8 16.7 24.1 46 1009.2(-2.2/3h) 30 1/8 -- --
14:00 4.1 0.4 -5.7 S 16.7 16.7 24.1 49 1009.7(-2.4/3h) 30 1/8 -- --
13:00 3.8 0.6 -4.2 S 13.0 14.8 22.2 56 1010.7(-1.8/3h) 30 1/8 -- --
12:00 3.5 -0.1 -3.7 S 14.8 14.8 24.1 59 1011.6(-1.5/3h) 30 1/8 0/6h
--
11:00 2.9 -0.5 -3.9 S 13.0 14.8 24.1 61 1012.2(-1.6/3h) 30 0/8 -- --
10:00 2.0 -1.6 -3.4 S 13.0 13.0 20.4 67 1012.7(-1.3/3h) 30 0/8 -- --
09:00 0.4 -2.6 -3.4 SSE 9.3 11.1 20.4 76 1013.4(-1.0/3h) 30 0/8 -- --
08:00 -0.7 -3.4 -3.6 S 7.4 11.1 14.8 81 1014.1(-0.7/3h) 30 0/8 -- --
07:00 -1.1 -4.4 -3.6 SSE 9.3 9.3 20.4 83 1014.3(-1.0/3h) 30 0/8 -- --
06:00 -1.1 -3.8 -3.5 S 7.4 11.1 20.4 84 1014.5(-1.4/3h) 30 0/8 0/12h
--
05:00 -0.6 -3.2 -3.1 S 7.4 11.1 20.4 83 1014.9(-1.6/3h) 30 0/8 -- --
04:00 -0.6 -3.8 -3.3 S 9.3 11.1 18.5 82 1015.3(-1.7/3h) 30 0/8 -- --
03:00 -0.3 -2.9 -3.0 S 7.4 9.3 18.5 82 1015.9(-1.3/3h) 30 0/8 -- --
02:00 -0.4 -3.6 -3.1 S 9.3 9.3 14.8 82 1016.5(-0.9/3h) 30 0/8 -- --
01:00 -0.2 -3.4 -3.2 S 9.3 9.3 13.0 80 1017(-0.6/3h) 30 0/8 -- --
00:00 -0.2 -3.4 -3.2 S 9.3 9.3 16.7 80 1017.2(-0.5/3h) 30 0/8 0/6h
trace/24h
--

1 Coordinated Universal Time. Actuellement il est 00:00 locale et 22:00 UTC.

2 Le vent souffle depuis la direction indiquée vers la direction oposée.

3 Les rafales max. sont disponible 40 min après l'heure du relevé.

4 Pour les stations d'altitude (plus de 600m) le géopotentiel du niveau le plus proche de la pression obligatoire est indiqué.

5 Les stations disposant d'un diffuseur peuvent indiquer "trace". Cela signifie que des précipitations ont touchés le sol mais que la quantité est inférieure à 0.1 mm.

Récapitulatif de la journée
Température [°C] Vent [km/h] Ensoleillement4 [h] Precipitations totale5 [mm] Pression [Hpa]
Min1 Max.2 Moy.3 Max. Min Max.
-1.1 4.7 11.6 24.1 0 h 0 min 0 1009.2 1017.2

1 Température minimale relevée entre 18:00 UTC la veille et 18:00 UTC le jour donné.

2 Température maximale relevée entre 06:00 UTC le jour donné et 06:00 UTC le lendemain.

3 Vent moyen de la journée basé sur les relevés horaires.

4 Ensoleillement en heures relevé entre 06:00 UTC la veille et 06:00 UTC le jour donné.

5 Précipitations totales tombées entre 06:00 UTC la jour donné et 06:00 UTC le lendemain.

Graphiques horaires